Time;durP1;ratioP1;P1;durP2;ratioP2;P2;SDS_P1;SDS_P2;PMS_P1;PMS_P2;Temp;Humidity;BMP_temperature;BMP_pressure;BME280_temperature;BME280_humidity;BME280_pressure;Samples;Min_cycle;Max_cycle;Signal;HPM_P1;HPM_P2
2023/12/17 00:00:12;;;;;;;13.27;6.20;;;;;;;-1.27;80.41;96671.69;5110219;28;20028;-77
2023/12/17 00:02:39;;;;;;;13.20;7.35;;;;;;;-1.75;80.81;96643.94;5111292;28;20067;-77
2023/12/17 00:05:05;;;;;;;10.52;6.25;;;;;;;-1.51;81.37;96662.50;5127354;27;20058;-77
2023/12/17 00:07:30;;;;;;;11.95;6.38;;;;;;;-1.35;80.46;96675.13;5110379;28;20501;-77
2023/12/17 00:09:55;;;;;;;9.63;5.50;;;;;;;-1.44;80.81;96659.91;5111598;28;20147;-76
2023/12/17 00:12:21;;;;;;;9.57;5.22;;;;;;;-1.29;80.31;96671.69;5126912;27;20035;-77
2023/12/17 00:14:47;;;;;;;10.00;6.25;;;;;;;-1.29;79.79;96673.41;5111163;28;20035;-77
2023/12/17 00:17:12;;;;;;;10.23;6.10;;;;;;;-1.49;80.17;96676.06;5109770;28;20039;-77
2023/12/17 00:19:37;;;;;;;9.90;5.97;;;;;;;-1.45;80.06;96673.50;5111340;28;20461;-77
2023/12/17 00:22:03;;;;;;;10.43;5.90;;;;;;;-1.52;80.05;96674.38;5127018;27;20031;-77
2023/12/17 00:24:28;;;;;;;10.93;6.60;;;;;;;-1.45;79.61;96683.72;5127457;28;20058;-77
2023/12/17 00:26:57;;;;;;;12.38;6.18;;;;;;;-1.50;79.73;96693.09;5110144;28;20024;-76
2023/12/17 00:29:22;;;;;;;9.05;5.80;;;;;;;-1.52;79.71;96702.44;5092637;28;20034;-77
2023/12/17 00:31:47;;;;;;;10.65;6.10;;;;;;;-1.81;79.81;96688.16;5109962;28;20028;-77
2023/12/17 00:34:13;;;;;;;12.18;6.78;;;;;;;-1.60;79.47;96688.88;5126966;28;20038;-77
2023/12/17 00:36:38;;;;;;;9.45;5.60;;;;;;;-1.63;78.86;96699.94;5110589;28;20058;-77
2023/12/17 00:39:04;;;;;;;9.35;5.35;;;;;;;-1.47;79.28;96716.00;5111282;28;20480;-77
2023/12/17 00:41:31;;;;;;;10.00;5.88;;;;;;;-1.48;78.50;96709.19;5110514;28;20077;-77
2023/12/17 00:43:57;;;;;;;10.65;6.68;;;;;;;-1.36;78.78;96715.94;5143797;27;20535;-77
2023/12/17 00:46:22;;;;;;;9.30;5.80;;;;;;;-1.21;78.35;96705.63;5109901;28;20027;-77
2023/12/17 00:48:48;;;;;;;10.50;5.97;;;;;;;-1.30;77.90;96717.63;5109481;28;20020;-78
2023/12/17 00:51:13;;;;;;;10.65;5.57;;;;;;;-1.52;78.76;96719.44;5111007;28;20599;-77
2023/12/17 00:53:38;;;;;;;11.57;6.03;;;;;;;-1.45;78.39;96713.44;5111211;28;20461;-77
2023/12/17 00:56:04;;;;;;;8.57;5.28;;;;;;;-1.44;78.39;96710.88;5113858;28;20077;-77
2023/12/17 00:58:30;;;;;;;9.82;5.32;;;;;;;-1.49;77.99;96701.56;5113878;28;20507;-77
2023/12/17 01:00:55;;;;;;;9.15;5.47;;;;;;;-1.51;77.79;96710.91;5114611;28;20031;-77
2023/12/17 01:03:21;;;;;;;7.88;4.90;;;;;;;-1.55;78.23;96688.88;5130542;27;20085;-77
2023/12/17 01:05:46;;;;;;;10.40;5.70;;;;;;;-1.49;77.89;96696.47;5113743;28;20436;-77
2023/12/17 01:08:12;;;;;;;8.98;5.00;;;;;;;-1.54;78.74;96709.22;5130889;27;20035;-78
2023/12/17 01:10:37;;;;;;;11.07;6.15;;;;;;;-1.67;78.83;96711.00;5114813;28;20536;-77
2023/12/17 01:13:02;;;;;;;9.27;5.10;;;;;;;-1.76;78.88;96677.06;5112166;28;20040;-77
2023/12/17 01:15:28;;;;;;;9.45;5.30;;;;;;;-1.63;78.86;96699.09;5130348;27;20420;-77
2023/12/17 01:17:53;;;;;;;9.90;5.88;;;;;;;-1.83;79.00;96702.59;5113729;28;20024;-77
2023/12/17 01:20:19;;;;;;;9.73;5.40;;;;;;;-1.79;78.64;96688.13;5130200;27;20034;-77
2023/12/17 01:22:44;;;;;;;9.20;5.18;;;;;;;-1.85;78.80;96703.44;5113452;28;20055;-77
2023/12/17 01:25:09;;;;;;;9.48;5.13;;;;;;;-1.76;78.99;96712.75;5147371;27;20493;-77
2023/12/17 01:27:35;;;;;;;8.25;4.82;;;;;;;-1.99;79.03;96700.94;5114813;28;20028;-77
2023/12/17 01:30:00;;;;;;;9.77;5.00;;;;;;;-1.81;79.00;96713.63;5113029;28;20088;-77
2023/12/17 01:32:26;;;;;;;13.98;7.18;;;;;;;-1.99;78.84;96708.59;5095638;28;20032;-77
2023/12/17 01:34:51;;;;;;;13.70;6.93;;;;;;;-1.87;79.07;96728.06;5113257;28;20106;-77
2023/12/17 01:37:17;;;;;;;9.75;6.22;;;;;;;-1.97;78.96;96729.81;5113148;28;20505;-77
2023/12/17 01:39:42;;;;;;;11.57;6.18;;;;;;;-2.21;79.61;96729.88;5114182;28;20031;-77
2023/12/17 01:42:07;;;;;;;9.23;5.07;;;;;;;-2.01;79.60;96728.13;5146789;27;20043;-77
2023/12/17 01:44:33;;;;;;;7.45;4.22;;;;;;;-2.07;79.21;96723.06;5147161;27;20035;-77
2023/12/17 01:46:58;;;;;;;7.50;4.45;;;;;;;-2.08;79.42;96729.00;5130123;27;20023;-77
2023/12/17 01:49:24;;;;;;;8.98;4.72;;;;;;;-1.84;78.87;96731.47;5112567;28;20547;-77
2023/12/17 01:51:49;;;;;;;7.07;4.43;;;;;;;-1.96;78.73;96731.50;5146980;27;20020;-77
2023/12/17 01:54:15;;;;;;;9.25;5.40;;;;;;;-1.94;78.82;96742.53;5112604;28;20053;-77
2023/12/17 01:56:40;;;;;;;9.35;5.22;;;;;;;-2.16;78.62;96743.47;5129551;27;20033;-77
2023/12/17 01:59:06;;;;;;;8.68;4.75;;;;;;;-2.22;78.33;96728.19;5146915;27;20042;-77
2023/12/17 02:01:31;;;;;;;9.80;5.22;;;;;;;-2.31;78.93;96719.72;5129268;27;20398;-77
2023/12/17 02:03:57;;;;;;;10.20;5.18;;;;;;;-2.47;79.32;96710.44;5129615;27;20032;-76
2023/12/17 02:06:22;;;;;;;8.95;5.00;;;;;;;-2.30;79.12;96736.69;5110452;28;20031;-77
2023/12/17 02:08:48;;;;;;;8.85;4.78;;;;;;;-2.37;79.63;96706.16;5146235;27;20029;-77
2023/12/17 02:11:13;;;;;;;10.13;4.95;;;;;;;-2.46;79.00;96712.09;5112540;28;20027;-77
2023/12/17 02:13:38;;;;;;;8.70;4.82;;;;;;;-2.26;79.19;96734.97;5146803;27;20036;-77
2023/12/17 02:16:04;;;;;;;7.13;4.20;;;;;;;-2.17;79.36;96721.38;5129498;27;20020;-77
2023/12/17 02:18:30;;;;;;;8.85;4.82;;;;;;;-2.32;78.47;96692.56;5113362;28;20035;-77
2023/12/17 02:20:56;;;;;;;8.82;4.80;;;;;;;-2.22;78.80;96723.09;5112202;28;20024;-77
2023/12/17 02:23:21;;;;;;;7.85;4.57;;;;;;;-2.26;78.69;96722.25;5112233;28;20058;-77
2023/12/17 02:25:46;;;;;;;7.38;4.53;;;;;;;-2.13;78.52;96716.28;5129239;27;20024;-77
2023/12/17 02:28:12;;;;;;;7.85;4.25;;;;;;;-2.23;77.57;96716.31;5113331;28;20027;-77
2023/12/17 02:30:37;;;;;;;8.10;4.40;;;;;;;-2.35;77.33;96715.47;5128811;27;20023;-77
2023/12/17 02:33:03;;;;;;;8.18;4.20;;;;;;;-2.22;77.33;96718.84;5146380;27;20039;-76
2023/12/17 02:35:28;;;;;;;7.13;4.22;;;;;;;-2.36;77.81;96695.13;5111747;28;20099;-77
2023/12/17 02:37:53;;;;;;;7.82;4.45;;;;;;;-2.36;77.90;96701.06;5111281;28;20485;-77
2023/12/17 02:40:19;;;;;;;8.68;4.88;;;;;;;-2.48;77.81;96707.03;5146563;27;20420;-78
2023/12/17 02:42:44;;;;;;;7.25;4.70;;;;;;;-2.51;78.10;96718.91;5127972;27;20574;-77
2023/12/17 02:45:10;;;;;;;8.35;4.63;;;;;;;-2.56;78.55;96713.84;5127796;27;20023;-78
2023/12/17 02:47:36;;;;;;;8.80;4.93;;;;;;;-2.68;77.89;96720.63;5144413;27;20047;-77
2023/12/17 02:50:01;;;;;;;8.40;4.70;;;;;;;-2.85;78.53;96705.38;5113016;28;20064;-76
2023/12/17 02:52:27;;;;;;;9.02;4.32;;;;;;;-2.62;78.81;96730.78;5146034;27;20116;-78
2023/12/17 02:54:52;;;;;;;9.63;5.05;;;;;;;-2.71;78.85;96711.28;5094794;28;20068;-77
2023/12/17 02:57:18;;;;;;;8.80;4.38;;;;;;;-2.94;79.68;96711.31;5111622;28;20481;-76
2023/12/17 02:59:43;;;;;;;10.32;5.22;;;;;;;-2.79;79.99;96730.81;5112913;28;20030;-76
2023/12/17 03:02:08;;;;;;;7.90;4.70;;;;;;;-2.60;79.22;96718.91;5111438;28;20394;-76
2023/12/17 03:04:34;;;;;;;9.70;5.35;;;;;;;-2.61;79.48;96730.81;5128755;27;20729;-76
2023/12/17 03:06:59;;;;;;;9.18;4.95;;;;;;;-2.61;79.04;96730.81;5112532;28;20044;-78
2023/12/17 03:09:25;;;;;;;7.70;4.18;;;;;;;-2.59;79.38;96733.31;5111289;28;20031;-76
2023/12/17 03:11:50;;;;;;;9.20;4.97;;;;;;;-2.77;79.67;96722.31;5112587;28;20031;-76
2023/12/17 03:14:15;;;;;;;8.63;4.20;;;;;;;-2.74;79.40;96729.94;5111283;28;20031;-76
2023/12/17 03:16:41;;;;;;;7.50;3.92;;;;;;;-2.88;80.26;96734.19;5110507;28;20049;-75
2023/12/17 03:19:07;;;;;;;7.18;4.05;;;;;;;-2.85;79.07;96710.47;5109028;28;20024;-74
2023/12/17 03:21:32;;;;;;;9.05;4.40;;;;;;;-2.65;78.95;96730.78;5106946;28;20523;-75
2023/12/17 03:23:57;;;;;;;6.30;3.50;;;;;;;-2.75;78.92;96715.53;5110136;28;20019;-75
2023/12/17 03:26:23;;;;;;;6.97;4.72;;;;;;;-2.95;79.03;96707.09;5112178;28;20031;-78
2023/12/17 03:28:48;;;;;;;16.70;6.70;;;;;;;-3.03;79.36;96712.16;5131945;27;20028;-76
2023/12/17 03:31:15;;;;;;;10.52;4.75;;;;;;;-2.79;79.44;96711.28;5096203;28;20032;-77
2023/12/17 03:33:41;;;;;;;15.50;6.65;;;;;;;-2.77;78.97;96711.31;5128051;27;20101;-75
2023/12/17 03:36:07;;;;;;;12.38;5.47;;;;;;;-2.80;78.98;96739.28;5103539;28;20077;-76
2023/12/17 03:38:32;;;;;;;10.15;5.20;;;;;;;-2.75;79.20;96733.34;5122831;27;20035;-77
2023/12/17 03:40:58;;;;;;;7.90;4.18;;;;;;;-2.83;79.24;96709.59;5121417;27;20104;-76
2023/12/17 03:43:23;;;;;;;8.38;4.18;;;;;;;-2.74;79.10;96745.22;5111808;28;20052;-76
2023/12/17 03:45:48;;;;;;;7.82;4.25;;;;;;;-2.89;79.23;96719.78;5111130;28;20476;-76
2023/12/17 03:48:14;;;;;;;6.43;3.92;;;;;;;-2.75;78.74;96747.78;5076479;28;20046;-74
2023/12/17 03:50:39;;;;;;;6.90;4.07;;;;;;;-2.93;78.78;96733.34;5127946;27;20027;-75
2023/12/17 03:53:10;;;;;;;7.85;3.95;;;;;;;-2.81;78.43;96743.53;5125436;27;20039;-77
2023/12/17 03:55:38;;;;;;;6.28;3.47;;;;;;;-2.92;78.80;96748.63;5106049;28;20055;-78
2023/12/17 03:58:04;;;;;;;7.70;4.20;;;;;;;-3.04;78.85;96735.03;5110393;28;20046;-77
2023/12/17 04:00:29;;;;;;;6.35;3.78;;;;;;;-3.12;79.45;96737.59;5127660;27;20031;-76
2023/12/17 04:02:55;;;;;;;6.78;3.80;;;;;;;-2.99;79.17;96758.78;5143843;27;20405;-75
2023/12/17 04:05:20;;;;;;;7.57;3.95;;;;;;;-3.18;79.05;96755.34;5093625;28;20031;-75
2023/12/17 04:07:46;;;;;;;6.30;3.72;;;;;;;-3.22;79.88;96754.50;5144747;27;20085;-75
2023/12/17 04:10:11;;;;;;;7.15;3.90;;;;;;;-3.12;79.14;96762.13;5093016;28;20027;-75
2023/12/17 04:12:37;;;;;;;6.30;4.25;;;;;;;-3.12;79.69;96768.09;5092722;28;20043;-75
2023/12/17 04:15:02;;;;;;;6.28;3.75;;;;;;;-3.22;79.30;96762.13;5103322;27;20020;-75
2023/12/17 04:17:29;;;;;;;8.90;3.78;;;;;;;-3.32;79.99;96754.47;5107851;27;20534;-76
2023/12/17 04:19:54;;;;;;;8.32;3.97;;;;;;;-3.19;79.77;96772.31;5088336;27;20495;-76
2023/12/17 04:22:19;;;;;;;6.45;3.88;;;;;;;-3.28;79.65;96759.59;5077375;28;20036;-75
2023/12/17 04:24:45;;;;;;;6.60;3.80;;;;;;;-3.12;79.34;96780.81;5107361;28;20024;-76
2023/12/17 04:27:11;;;;;;;7.60;4.10;;;;;;;-3.20;79.17;96775.72;5124813;27;20096;-76
2023/12/17 04:29:36;;;;;;;6.30;4.10;;;;;;;-3.08;78.60;96771.50;5103570;28;20047;-76
2023/12/17 04:32:02;;;;;;;7.63;4.22;;;;;;;-2.95;78.18;96775.75;5091978;27;20477;-76
2023/12/17 04:34:27;;;;;;;6.38;4.07;;;;;;;-3.12;78.00;96777.41;5108081;28;20063;-75
2023/12/17 04:36:54;;;;;;;6.80;4.15;;;;;;;-3.04;77.28;96784.19;5095962;28;20452;-75
2023/12/17 04:39:20;;;;;;;5.43;3.88;;;;;;;-3.13;77.69;96780.81;5107952;28;20024;-75
2023/12/17 04:41:45;;;;;;;7.82;4.28;;;;;;;-3.09;77.74;96782.50;5141579;27;20046;-76
2023/12/17 04:44:11;;;;;;;6.78;3.80;;;;;;;-3.21;78.49;96770.59;5109014;28;20044;-76
2023/12/17 04:46:38;;;;;;;7.88;3.90;;;;;;;-3.29;79.08;96770.59;5106298;28;20032;-76
2023/12/17 04:49:03;;;;;;;6.45;4.10;;;;;;;-3.26;79.25;96780.78;5071967;28;20035;-76
2023/12/17 04:51:29;;;;;;;6.70;3.90;;;;;;;-3.29;78.91;96754.47;5111026;28;20444;-76
2023/12/17 04:53:54;;;;;;;5.30;3.53;;;;;;;-3.25;78.89;96785.00;5108994;28;20028;-75
2023/12/17 04:56:19;;;;;;;8.00;3.80;;;;;;;-3.31;79.22;96771.44;5098035;28;20016;-77
2023/12/17 04:58:45;;;;;;;5.70;3.47;;;;;;;-3.28;79.27;96791.78;5088267;28;20093;-75
2023/12/17 05:01:10;;;;;;;21.90;12.30;;;;;;;-3.37;79.35;96792.63;5073706;28;20069;-75
2023/12/17 05:03:36;;;;;;;10.18;5.78;;;;;;;-3.37;79.57;96785.84;5105507;28;20031;-76
2023/12/17 05:06:02;;;;;;;6.25;3.90;;;;;;;-3.53;79.08;96768.84;5106355;28;20027;-75
2023/12/17 05:08:28;;;;;;;6.32;3.65;;;;;;;-3.34;78.99;96790.09;5104759;28;20030;-76
2023/12/17 05:10:53;;;;;;;6.43;3.38;;;;;;;-3.43;79.22;96800.19;5091645;28;20024;-76
2023/12/17 05:13:19;;;;;;;9.77;4.70;;;;;;;-3.61;79.57;96778.13;5107980;28;20024;-76
2023/12/17 05:15:44;;;;;;;7.68;4.32;;;;;;;-3.45;79.50;96805.28;5073389;28;20028;-76
2023/12/17 05:18:10;;;;;;;8.02;3.55;;;;;;;-3.46;79.59;96808.66;5108085;28;20131;-75
2023/12/17 05:20:35;;;;;;;5.80;3.38;;;;;;;-3.52;79.18;96797.63;5107088;28;20020;-75
2023/12/17 05:23:02;;;;;;;7.50;3.40;;;;;;;-3.55;79.17;96797.63;5109099;28;20036;-74
2023/12/17 05:25:27;;;;;;;5.20;3.70;;;;;;;-3.47;79.80;96806.97;5089828;28;20026;-74
2023/12/17 05:27:53;;;;;;;5.53;3.40;;;;;;;-3.44;79.86;96808.69;5091126;28;20039;-76
2023/12/17 05:30:19;;;;;;;5.70;3.53;;;;;;;-3.47;79.56;96801.88;5106607;28;20028;-76
2023/12/17 05:32:44;;;;;;;5.10;3.50;;;;;;;-3.34;79.47;96824.78;5075165;28;20027;-76
2023/12/17 05:35:10;;;;;;;5.78;3.20;;;;;;;-3.40;79.88;96826.50;5108473;28;20020;-76
2023/12/17 05:37:35;;;;;;;6.68;3.88;;;;;;;-3.28;79.80;96833.31;5108236;28;20085;-76
2023/12/17 05:40:01;;;;;;;7.55;3.97;;;;;;;-3.37;79.49;96835.81;5091256;28;20059;-76
2023/12/17 05:42:26;;;;;;;6.43;3.65;;;;;;;-3.55;79.68;96812.88;5128898;27;20507;-76
2023/12/17 05:44:52;;;;;;;5.28;3.28;;;;;;;-3.25;79.20;96838.41;5117539;27;20023;-76
2023/12/17 05:47:17;;;;;;;6.65;3.60;;;;;;;-3.53;79.38;96827.28;5112181;28;20031;-76
2023/12/17 05:49:43;;;;;;;5.70;3.45;;;;;;;-3.28;78.79;96833.31;5112066;28;20023;-76
2023/12/17 05:52:08;;;;;;;6.15;3.80;;;;;;;-3.38;79.37;96841.72;5095861;28;20036;-75
2023/12/17 05:54:34;;;;;;;7.15;4.20;;;;;;;-3.27;79.15;96831.59;5093732;28;20031;-76
2023/12/17 05:57:00;;;;;;;6.35;3.72;;;;;;;-3.30;79.50;96831.59;5096202;28;20122;-76
2023/12/17 05:59:25;;;;;;;7.70;4.70;;;;;;;-3.30;79.74;96829.91;5109750;28;20032;-76
2023/12/17 06:01:50;;;;;;;7.72;3.83;;;;;;;-3.41;79.72;96826.47;5095325;28;20042;-76
2023/12/17 06:04:16;;;;;;;6.32;3.90;;;;;;;-3.21;79.53;96837.56;5112478;28;20512;-76
2023/12/17 06:06:41;;;;;;;7.07;4.25;;;;;;;-3.34;79.83;96848.53;5074729;28;20032;-76
2023/12/17 06:09:07;;;;;;;10.75;5.65;;;;;;;-3.26;79.28;96844.34;5082763;28;20039;-76
2023/12/17 06:11:33;;;;;;;12.27;5.93;;;;;;;-3.41;79.89;96836.66;5111026;28;20435;-76
2023/12/17 06:13:58;;;;;;;8.38;4.60;;;;;;;-3.19;79.16;96842.66;5113843;28;20023;-76
2023/12/17 06:16:24;;;;;;;9.40;4.85;;;;;;;-3.27;79.51;96836.69;5093852;28;20125;-76
2023/12/17 06:18:49;;;;;;;10.32;5.82;;;;;;;-3.23;79.75;96846.88;5076575;28;20027;-75
2023/12/17 06:21:26;;;;;;;6.97;4.32;;;;;;;-3.26;79.69;96826.53;5111677;28;20430;-75
2023/12/17 06:23:52;;;;;;;6.18;3.97;;;;;;;-3.13;79.54;96845.22;5095210;28;20064;-75
2023/12/17 06:26:20;;;;;;;7.72;4.32;;;;;;;-3.28;80.10;96829.94;5077673;28;20034;-75
2023/12/17 06:28:46;;;;;;;7.47;4.43;;;;;;;-3.26;79.84;96836.72;5109797;28;20066;-76
2023/12/17 06:31:12;;;;;;;7.90;4.03;;;;;;;-3.09;79.76;96849.47;5078173;28;20047;-77
2023/12/17 06:33:37;;;;;;;11.88;4.43;;;;;;;-3.21;79.40;96829.94;5127295;27;20070;-77
2023/12/17 06:36:04;;;;;;;5.63;3.67;;;;;;;-3.05;79.28;96842.69;5074267;28;20032;-75
2023/12/17 06:38:29;;;;;;;6.85;4.10;;;;;;;-3.12;79.75;96838.44;5105182;28;20031;-75
2023/12/17 06:40:54;;;;;;;7.47;4.00;;;;;;;-3.13;79.59;96829.09;5095756;27;20038;-74
2023/12/17 06:43:20;;;;;;;7.03;3.97;;;;;;;-3.07;79.46;96836.75;5115455;27;20486;-75
2023/12/17 06:45:46;;;;;;;6.25;3.85;;;;;;;-2.99;79.17;96850.34;5092839;28;20024;-73
2023/12/17 06:48:11;;;;;;;9.57;4.78;;;;;;;-3.11;79.11;96855.41;5109901;28;20077;-74
2023/12/17 06:50:37;;;;;;;10.90;6.10;;;;;;;-3.03;79.20;96863.91;5074645;28;20032;-73
2023/12/17 06:53:02;;;;;;;9.23;5.82;;;;;;;-3.12;78.74;96866.41;5093477;28;20036;-74
2023/12/17 06:55:27;;;;;;;10.52;5.38;;;;;;;-3.28;79.54;96865.50;5109676;27;20039;-74
2023/12/17 06:57:53;;;;;;;7.03;4.47;;;;;;;-3.06;78.93;96868.97;5110734;28;20035;-74
2023/12/17 07:00:18;;;;;;;8.88;4.38;;;;;;;-2.99;78.81;96876.63;5109260;28;20515;-72
2023/12/17 07:02:44;;;;;;;7.28;3.47;;;;;;;-2.99;78.83;96868.97;5110266;28;20610;-72
2023/12/17 07:05:09;;;;;;;10.07;5.13;;;;;;;-3.04;78.68;96877.44;5110538;28;20024;-75
2023/12/17 07:07:35;;;;;;;7.72;4.63;;;;;;;-3.03;79.02;96889.34;5090806;28;20027;-74
2023/12/17 07:10:00;;;;;;;8.27;5.05;;;;;;;-3.06;79.21;96889.31;5090832;28;20081;-76
2023/12/17 07:12:26;;;;;;;8.83;4.60;;;;;;;-3.01;79.83;96890.16;5108709;28;20023;-74
2023/12/17 07:14:51;;;;;;;9.20;4.60;;;;;;;-2.97;79.60;96896.97;5124061;27;20031;-74
2023/12/17 07:17:17;;;;;;;7.25;4.57;;;;;;;-2.87;79.82;96891.09;5110633;28;20065;-73
2023/12/17 07:19:42;;;;;;;8.95;4.63;;;;;;;-2.68;79.32;96893.66;5105423;28;20028;-74
2023/12/17 07:22:08;;;;;;;8.82;4.53;;;;;;;-2.60;79.32;96892.81;5110987;28;20489;-73
2023/12/17 07:24:33;;;;;;;8.20;4.90;;;;;;;-2.67;79.87;96897.88;5107638;28;20084;-74
2023/12/17 07:26:59;;;;;;;10.07;6.43;;;;;;;-2.52;79.22;96896.22;5109193;27;20080;-74
2023/12/17 07:29:24;;;;;;;9.98;5.53;;;;;;;-2.47;79.40;96892.00;5087355;28;20488;-75
2023/12/17 07:31:50;;;;;;;10.88;5.68;;;;;;;-2.61;80.12;96880.09;5126622;27;20024;-73
2023/12/17 07:34:15;;;;;;;10.15;6.10;;;;;;;-2.29;79.76;96885.22;5109189;28;20032;-74
2023/12/17 07:36:41;;;;;;;9.18;5.45;;;;;;;-2.30;79.86;96883.53;5108672;28;20016;-74
2023/12/17 07:39:07;;;;;;;10.68;6.07;;;;;;;-2.30;80.51;96879.28;5107825;28;20030;-74
2023/12/17 07:41:32;;;;;;;10.15;5.47;;;;;;;-2.03;80.37;96880.13;5122678;27;20076;-74
2023/12/17 07:43:58;;;;;;;13.48;6.93;;;;;;;-2.10;80.01;96860.59;5110772;27;20076;-72
2023/12/17 07:46:23;;;;;;;9.95;5.43;;;;;;;-2.11;79.73;96849.56;5090802;28;20039;-73
2023/12/17 07:48:49;;;;;;;10.35;5.43;;;;;;;-1.81;79.58;96886.06;5092786;27;20031;-73
2023/12/17 07:51:15;;;;;;;13.30;7.63;;;;;;;-1.88;78.46;96872.47;5109613;28;20084;-74
2023/12/17 07:53:40;;;;;;;9.05;5.78;;;;;;;-1.81;78.92;96876.72;5106932;27;20035;-75
2023/12/17 07:56:08;;;;;;;8.25;5.00;;;;;;;-1.73;79.34;96894.50;5109310;28;20433;-74
2023/12/17 07:58:33;;;;;;;8.73;5.35;;;;;;;-1.52;79.15;96896.19;5106983;28;20038;-74
2023/12/17 08:00:58;;;;;;;10.10;4.93;;;;;;;-1.39;78.94;96894.47;5111106;28;20027;-75
2023/12/17 08:03:24;;;;;;;8.38;5.60;;;;;;;-1.39;79.02;96905.50;5142667;27;20749;-74
2023/12/17 08:05:50;;;;;;;9.18;5.60;;;;;;;-1.31;79.04;96908.03;5110700;28;20023;-73
2023/12/17 08:08:15;;;;;;;8.30;5.35;;;;;;;-1.12;78.39;96904.53;5090582;28;20039;-74
2023/12/17 08:10:41;;;;;;;10.85;6.20;;;;;;;-1.09;78.00;96903.69;5108233;28;20030;-74
2023/12/17 08:13:06;;;;;;;13.35;7.65;;;;;;;-0.99;77.77;96913.00;5111258;28;20071;-73
2023/12/17 08:15:31;;;;;;;11.88;7.43;;;;;;;-0.76;76.34;96915.44;5090235;28;20455;-75
2023/12/17 08:17:57;;;;;;;10.15;6.18;;;;;;;-0.68;76.78;96915.41;5110084;28;20507;-74
2023/12/17 08:20:22;;;;;;;9.00;6.32;;;;;;;-0.59;76.16;96928.13;5140562;27;20032;-74
2023/12/17 08:22:48;;;;;;;11.15;6.70;;;;;;;-0.53;75.33;96911.91;5111176;28;20088;-75
2023/12/17 08:25:13;;;;;;;20.70;13.55;;;;;;;-0.42;73.85;96912.69;5091764;28;20020;-74
2023/12/17 08:27:38;;;;;;;17.17;11.75;;;;;;;-0.34;72.97;96925.41;5125515;27;20096;-74
2023/12/17 08:30:05;;;;;;;14.40;9.45;;;;;;;-0.42;74.02;96929.72;5109395;28;20069;-74
2023/12/17 08:32:33;;;;;;;16.60;10.43;;;;;;;-0.54;74.49;96923.84;5107814;28;20401;-73
2023/12/17 08:34:59;;;;;;;19.02;13.48;;;;;;;-0.67;74.40;96927.31;5109509;28;20370;-81
2023/12/17 08:37:26;;;;;;;17.48;11.18;;;;;;;-0.62;74.62;96923.03;5091362;28;20042;-75
2023/12/17 08:39:53;;;;;;;16.40;10.15;;;;;;;-0.30;73.96;96909.22;5090721;28;20026;-75
2023/12/17 08:42:18;;;;;;;14.30;9.63;;;;;;;-0.13;73.83;96915.06;5108579;28;20111;-74
2023/12/17 08:44:45;;;;;;;19.17;10.63;;;;;;;-0.15;73.93;96900.59;5108567;28;20024;-74
2023/12/17 08:47:10;;;;;;;16.92;9.65;;;;;;;-0.28;74.59;96892.16;5088833;28;20078;-74
2023/12/17 08:49:36;;;;;;;13.13;9.13;;;;;;;-0.18;73.88;96877.63;5083492;28;20446;-74
2023/12/17 08:52:01;;;;;;;13.02;8.15;;;;;;;0.03;73.53;96894.47;5090490;28;20028;-75
2023/12/17 08:54:27;;;;;;;14.05;8.25;;;;;;;0.02;74.29;96880.03;5098409;28;20428;-74
2023/12/17 08:56:52;;;;;;;13.35;7.53;;;;;;;0.08;74.75;96873.13;5109375;28;20125;-74
2023/12/17 08:59:17;;;;;;;13.00;7.93;;;;;;;0.01;75.30;96870.66;5108567;28;20227;-74
2023/12/17 09:01:43;;;;;;;12.18;7.20;;;;;;;0.10;74.96;96873.13;5108255;28;20031;-74
2023/12/17 09:04:08;;;;;;;14.82;8.82;;;;;;;0.00;74.64;96872.38;5110705;28;20019;-75
2023/12/17 09:06:44;;;;;;;13.10;8.27;;;;;;;0.24;74.79;96878.13;5090988;28;20124;-75
2023/12/17 09:09:10;;;;;;;14.27;8.13;;;;;;;0.10;74.49;96878.25;5072914;28;20119;-77
2023/12/17 09:11:35;;;;;;;14.32;8.20;;;;;;;-0.05;74.53;96872.41;5108364;28;20057;-74
2023/12/17 09:14:01;;;;;;;12.70;8.32;;;;;;;-0.26;75.70;96880.25;5110762;28;20088;-75
2023/12/17 09:16:26;;;;;;;18.25;11.07;;;;;;;-0.03;74.33;96878.38;5112929;28;20028;-76
2023/12/17 09:18:51;;;;;;;17.25;10.35;;;;;;;-0.07;73.76;96861.34;5111777;28;20461;-75
2023/12/17 09:21:17;;;;;;;11.07;7.32;;;;;;;0.06;73.88;96881.72;5112322;28;20035;-76
2023/12/17 09:23:42;;;;;;;11.43;7.40;;;;;;;0.18;73.77;96884.97;5110715;27;20036;-77
2023/12/17 09:26:08;;;;;;;19.23;11.43;;;;;;;-0.05;74.59;96869.00;5096575;28;20036;-78
2023/12/17 09:28:35;;;;;;;23.92;12.75;;;;;;;-0.05;74.42;96880.06;5127386;27;20040;-76
2023/12/17 09:31:01;;;;;;;23.73;12.73;;;;;;;-0.25;73.67;96825.75;5113131;28;20060;-75
2023/12/17 09:33:26;;;;;;;23.15;14.30;;;;;;;-0.07;74.98;96856.25;5112389;28;20040;-75
2023/12/17 09:35:52;;;;;;;55.83;28.48;;;;;;;-0.03;75.22;96864.72;5111992;28;20019;-74
2023/12/17 09:38:18;;;;;;;38.97;17.70;;;;;;;-0.02;74.84;96872.38;5111185;28;20036;-74
2023/12/17 09:40:46;;;;;;;54.28;24.27;;;;;;;0.04;73.52;96860.41;5077685;28;20408;-75
2023/12/17 09:43:11;;;;;;;43.95;22.35;;;;;;;0.05;74.12;96880.00;5095064;28;20048;-76
2023/12/17 09:45:37;;;;;;;29.23;16.73;;;;;;;0.09;74.03;96871.44;5090287;28;20034;-77
2023/12/17 09:48:02;;;;;;;27.17;14.98;;;;;;;0.10;74.29;96873.13;5078986;28;20028;-76
2023/12/17 09:50:28;;;;;;;23.20;12.13;;;;;;;-0.08;74.48;96869.03;5109689;28;20546;-75
2023/12/17 09:52:54;;;;;;;14.13;9.18;;;;;;;-0.23;73.61;96877.66;5090268;28;20040;-74
2023/12/17 09:55:20;;;;;;;17.40;10.88;;;;;;;-0.29;74.28;96870.03;5090488;28;20034;-75
2023/12/17 09:57:45;;;;;;;19.45;12.88;;;;;;;-0.08;73.20;96869.03;5090782;28;20040;-76
2023/12/17 10:00:12;;;;;;;14.63;9.38;;;;;;;-0.23;73.14;96854.66;5090960;28;20024;-75
2023/12/17 10:02:41;;;;;;;20.20;12.35;;;;;;;-0.12;72.94;96862.25;5126222;27;20073;-74
2023/12/17 10:05:06;;;;;;;20.35;12.20;;;;;;;-0.42;74.04;96837.78;5105694;28;20038;-75
2023/12/17 10:07:33;;;;;;;33.80;19.42;;;;;;;-0.26;74.18;96854.69;5110964;28;20040;-74
2023/12/17 10:09:59;;;;;;;39.70;18.48;;;;;;;-0.14;73.59;96851.19;5110732;28;20028;-73
2023/12/17 10:12:25;;;;;;;30.67;13.63;;;;;;;-0.24;74.33;96850.44;5109434;28;20553;-74
2023/12/17 10:14:51;;;;;;;31.60;14.55;;;;;;;-0.07;73.72;96845.19;5128158;27;20107;-74
2023/12/17 10:17:17;;;;;;;52.33;29.13;;;;;;;0.13;73.25;96845.00;5095583;28;20115;-74
2023/12/17 10:19:43;;;;;;;23.88;14.55;;;;;;;0.02;73.99;96850.19;5094131;28;20019;-74
2023/12/17 10:22:08;;;;;;;24.80;15.27;;;;;;;-0.07;74.35;96838.34;5111911;28;20042;-74
2023/12/17 10:24:36;;;;;;;28.83;17.35;;;;;;;0.12;74.28;96845.88;5110985;28;20027;-74
2023/12/17 10:27:02;;;;;;;113.05;54.03;;;;;;;0.21;74.13;96833.81;5128711;27;20043;-74
2023/12/17 10:29:27;;;;;;;21.58;13.02;;;;;;;0.06;73.62;96840.81;5126905;27;20039;-74
2023/12/17 10:31:53;;;;;;;14.90;9.73;;;;;;;-0.15;73.22;96822.25;5094810;28;20394;-74
2023/12/17 10:34:19;;;;;;;20.08;12.48;;;;;;;0.19;72.59;96827.03;5112943;28;20027;-74
2023/12/17 10:36:49;;;;;;;17.83;11.38;;;;;;;0.02;72.78;96821.25;5126942;27;20433;-74
2023/12/17 10:39:18;;;;;;;19.98;12.48;;;;;;;0.32;72.31;96817.53;5125626;27;20059;-74
2023/12/17 10:41:44;;;;;;;37.80;21.88;;;;;;;0.16;72.70;96821.94;5109885;28;20437;-74
2023/12/17 10:44:13;;;;;;;19.13;11.93;;;;;;;-0.04;72.90;96824.69;5092927;28;20055;-74
2023/12/17 10:46:43;;;;;;;15.85;9.07;;;;;;;0.10;72.46;96817.75;5111158;28;20030;-74
2023/12/17 10:49:09;;;;;;;33.47;18.20;;;;;;;0.47;71.96;96826.75;5109263;28;20036;-74
2023/12/17 10:51:42;;;;;;;114.18;48.90;;;;;;;0.51;71.82;96818.19;5094908;28;20106;-74
2023/12/17 10:54:08;;;;;;;86.53;39.78;;;;;;;0.51;71.59;96825.84;5094788;28;20035;-74
2023/12/17 10:56:39;;;;;;;59.55;35.67;;;;;;;0.45;71.54;96829.31;5110805;28;20062;-75
2023/12/17 10:59:07;;;;;;;;;;;;;;;0.56;72.31;96837.72;5129521;27;20031;-74
2023/12/17 11:01:32;;;;;;;16.92;11.70;;;;;;;0.56;71.81;96837.72;5111703;28;19943;-75
2023/12/17 11:03:58;;;;;;;22.15;14.90;;;;;;;0.18;73.29;96815.13;5094807;28;20076;-74
2023/12/17 11:06:23;;;;;;;21.20;11.13;;;;;;;0.28;71.73;96833.75;5110169;28;20031;-74
2023/12/17 11:08:49;;;;;;;51.78;30.10;;;;;;;0.37;71.39;96816.63;5111641;28;20089;-74
2023/12/17 11:11:15;;;;;;;15.27;10.57;;;;;;;0.35;71.55;96808.09;5094421;28;20027;-74
2023/12/17 11:13:40;;;;;;;16.50;10.00;;;;;;;0.25;71.67;96810.78;5111529;28;20484;-75
2023/12/17 11:16:24;;;;;;;55.13;33.42;;;;;;;0.34;71.89;96792.81;5109901;28;20034;-74
2023/12/17 11:18:52;;;;;;;24.70;14.52;;;;;;;0.28;72.29;96792.84;5094584;28;20032;-74
2023/12/17 11:21:18;;;;;;;24.23;14.07;;;;;;;-0.05;73.37;96779.59;5111152;28;20119;-74